Time;durP1;ratioP1;P1;durP2;ratioP2;P2;SDS_P1;SDS_P2;PMS_P1;PMS_P2;Temp;Humidity;BMP_temperature;BMP_pressure;BME280_temperature;BME280_humidity;BME280_pressure;Samples;Min_cycle;Max_cycle;Signal;HPM_P1;HPM_P2
2022/09/30 00:02:25;;;;;;;24.23;18.92;;;;;;;4.28;100.00;100732.81;5346713;27;20485;-81
2022/09/30 00:04:57;;;;;;;28.33;21.40;;;;;;;4.09;100.00;100739.34;5337038;27;20023;-81
2022/09/30 00:07:28;;;;;;;27.77;19.20;;;;;;;4.02;100.00;100742.50;5343619;27;20042;-81
2022/09/30 00:09:59;;;;;;;26.27;19.55;;;;;;;3.86;100.00;100748.78;5327044;27;20102;-81
2022/09/30 00:12:31;;;;;;;25.70;20.30;;;;;;;3.89;100.00;100737.16;5347277;27;20024;-81
2022/09/30 00:15:02;;;;;;;26.05;19.98;;;;;;;4.09;100.00;100751.69;5326217;27;20035;-81
2022/09/30 00:17:34;;;;;;;27.75;19.92;;;;;;;4.16;100.00;100747.69;5347192;27;20618;-81
2022/09/30 00:20:07;;;;;;;24.85;18.30;;;;;;;4.11;100.00;100745.34;5342823;27;20020;-81
2022/09/30 00:22:38;;;;;;;24.15;18.90;;;;;;;4.03;100.00;100754.72;5345366;27;20358;-80
2022/09/30 00:25:10;;;;;;;23.35;19.35;;;;;;;3.89;100.00;100751.22;5323215;27;20035;-81
2022/09/30 00:27:41;;;;;;;24.77;19.17;;;;;;;3.71;100.00;100755.91;5346293;27;20366;-81
2022/09/30 00:30:12;;;;;;;25.52;19.40;;;;;;;3.67;100.00;100751.78;5345206;27;20080;-81
2022/09/30 00:32:44;;;;;;;25.88;19.23;;;;;;;3.92;100.00;100753.66;5346155;27;20121;-80
2022/09/30 00:35:15;;;;;;;25.92;19.80;;;;;;;3.83;100.00;100756.06;5345138;27;20096;-81
2022/09/30 00:37:46;;;;;;;28.88;21.27;;;;;;;3.90;100.00;100752.06;5346006;27;20111;-81
2022/09/30 00:40:19;;;;;;;31.17;21.75;;;;;;;3.89;100.00;100748.59;5345356;27;20019;-81
2022/09/30 00:42:50;;;;;;;32.75;24.45;;;;;;;3.93;100.00;100744.78;5345393;27;20039;-80
2022/09/30 00:45:22;;;;;;;32.88;24.00;;;;;;;4.01;100.00;100752.19;5343299;27;20097;-81
2022/09/30 00:48:03;;;;;;;33.72;26.00;;;;;;;4.11;100.00;100740.06;5346286;27;20020;-80
2022/09/30 00:50:44;;;;;;;32.13;24.50;;;;;;;4.23;100.00;100741.03;5344422;27;20478;-81
2022/09/30 00:53:17;;;;;;;32.40;22.60;;;;;;;4.37;100.00;100752.47;5334901;27;20032;-81
2022/09/30 00:56:10;;;;;;;39.17;25.48;;;;;;;4.23;100.00;100748.13;5325121;27;20031;-81
2022/09/30 00:58:49;;;;;;;35.15;24.75;;;;;;;4.23;100.00;100745.50;5347081;27;20027;-81
2022/09/30 01:01:21;;;;;;;31.90;21.98;;;;;;;4.20;100.00;100743.88;5345251;27;20085;-81
2022/09/30 01:03:58;;;;;;;30.65;22.42;;;;;;;4.11;100.00;100757.72;5346225;27;20024;-81
2022/09/30 01:06:30;;;;;;;32.30;22.02;;;;;;;4.05;100.00;100755.47;5343654;27;20123;-81
2022/09/30 01:09:02;;;;;;;32.35;23.23;;;;;;;4.15;100.00;100752.13;5342537;27;20114;-81
2022/09/30 01:11:33;;;;;;;37.80;28.00;;;;;;;4.12;100.00;100754.97;5344839;27;20019;-81
2022/09/30 01:14:14;;;;;;;34.00;23.77;;;;;;;4.24;100.00;100749.81;5343619;27;20031;-81
2022/09/30 01:17:04;;;;;;;36.83;23.42;;;;;;;4.05;100.00;100748.41;5345588;27;20038;-81
2022/09/30 01:19:58;;;;;;;40.30;26.27;;;;;;;3.88;100.00;100746.88;5339926;27;20035;-80
2022/09/30 01:22:42;;;;;;;32.33;24.02;;;;;;;3.75;100.00;100757.41;5317138;27;20418;-81
2022/09/30 01:26:11;;;;;;;38.60;25.85;;;;;;;3.75;100.00;100760.06;5332110;27;20053;-81
2022/09/30 01:29:07;;;;;;;33.25;22.85;;;;;;;3.72;100.00;100752.34;5258642;28;20145;-81
2022/09/30 01:32:16;;;;;;;36.35;26.27;;;;;;;3.74;100.00;100761.00;5241226;28;20105;-80
2022/09/30 01:35:06;;;;;;;39.40;26.30;;;;;;;4.02;100.00;100753.91;5314458;27;20122;-80
2022/09/30 01:37:44;;;;;;;38.95;26.50;;;;;;;4.05;100.00;100751.06;5342536;27;20023;-80
2022/09/30 01:40:25;;;;;;;39.25;27.67;;;;;;;3.89;100.00;100747.72;5345223;27;20035;-80
2022/09/30 01:43:10;;;;;;;35.40;25.02;;;;;;;3.60;100.00;100750.50;5344766;27;20529;-80
2022/09/30 01:46:02;;;;;;;35.17;24.33;;;;;;;3.59;100.00;100754.94;5346421;27;20385;-80
2022/09/30 01:48:58;;;;;;;39.63;27.17;;;;;;;3.50;100.00;100763.41;5344556;27;20031;-80
2022/09/30 01:51:37;;;;;;;38.13;26.65;;;;;;;3.52;100.00;100752.78;5327188;27;20023;-80
2022/09/30 01:54:20;;;;;;;33.45;22.45;;;;;;;3.45;100.00;100751.47;5325690;27;20064;-80
2022/09/30 01:56:57;;;;;;;40.88;28.45;;;;;;;3.49;100.00;100752.97;5325519;27;20104;-80
2022/09/30 01:59:41;;;;;;;55.83;18.48;;;;;;;3.29;100.00;100746.34;5343595;27;20024;-80
2022/09/30 02:02:19;;;;;;;34.05;23.00;;;;;;;3.41;100.00;100756.94;5346096;27;20027;-80
2022/09/30 02:04:56;;;;;;;31.67;22.40;;;;;;;3.35;100.00;100757.34;5325051;27;20427;-80
2022/09/30 02:07:38;;;;;;;31.60;22.23;;;;;;;3.35;100.00;100745.97;5343848;27;20031;-80
2022/09/30 02:10:20;;;;;;;31.75;22.95;;;;;;;3.28;100.00;100755.19;5342244;27;20485;-80
2022/09/30 02:13:04;;;;;;;36.25;25.38;;;;;;;3.28;100.00;100757.81;5326847;27;20073;-80
2022/09/30 02:15:40;;;;;;;43.03;27.55;;;;;;;3.27;100.00;100759.63;5344385;27;20080;-80
2022/09/30 02:18:35;;;;;;;32.73;22.63;;;;;;;2.98;100.00;100753.53;5345392;27;20099;-80
2022/09/30 02:21:10;;;;;;;31.77;23.23;;;;;;;2.90;100.00;100758.47;5326920;27;20020;-80
2022/09/30 02:23:46;;;;;;;34.40;20.98;;;;;;;2.62;100.00;100760.97;5343213;27;20055;-80
2022/09/30 02:26:25;;;;;;;26.92;19.38;;;;;;;2.79;100.00;100769.66;5344108;27;20024;-80
2022/09/30 02:29:06;;;;;;;24.55;19.25;;;;;;;2.63;100.00;100762.69;5344801;27;20047;-80
2022/09/30 02:31:41;;;;;;;27.08;18.42;;;;;;;2.59;100.00;100768.22;5340241;27;20089;-80
2022/09/30 02:34:21;;;;;;;23.02;17.40;;;;;;;2.52;100.00;100772.16;5337399;27;20023;-80
2022/09/30 02:37:01;;;;;;;28.08;18.27;;;;;;;2.49;100.00;100767.94;5341297;27;20027;-80
2022/09/30 02:39:42;;;;;;;28.23;19.95;;;;;;;2.55;100.00;100753.56;5345999;27;20024;-80
2022/09/30 02:42:19;;;;;;;31.65;21.63;;;;;;;2.61;100.00;100755.81;5344559;27;20027;-80
2022/09/30 02:44:52;;;;;;;34.20;23.80;;;;;;;2.70;100.00;100751.75;5341628;27;20043;-80
2022/09/30 02:47:33;;;;;;;46.60;27.80;;;;;;;2.74;100.00;100758.56;5342219;27;20055;-81
2022/09/30 02:50:26;;;;;;;44.30;29.48;;;;;;;2.82;100.00;100758.91;5345172;27;20019;-80
2022/09/30 02:53:03;;;;;;;42.05;26.85;;;;;;;3.05;100.00;100761.91;5335229;27;20024;-80
2022/09/30 02:55:34;;;;;;;43.25;29.58;;;;;;;3.06;100.00;100760.97;5339560;27;20030;-80
2022/09/30 02:58:13;;;;;;;54.47;33.17;;;;;;;2.88;100.00;100752.44;5325719;28;20032;-80
2022/09/30 03:00:44;;;;;;;50.35;33.58;;;;;;;2.83;100.00;100755.34;5341087;27;20023;-80
2022/09/30 03:03:26;;;;;;;44.83;29.73;;;;;;;3.09;100.00;100764.28;5348804;27;20036;-80
2022/09/30 03:05:57;;;;;;;61.50;36.13;;;;;;;3.03;100.00;100759.38;5345542;27;20057;-80
2022/09/30 03:08:29;;;;;;;57.63;36.85;;;;;;;3.06;100.00;100755.72;5335127;27;20027;-80
2022/09/30 03:11:01;;;;;;;61.67;37.60;;;;;;;3.16;100.00;100748.94;5352256;27;20503;-80
2022/09/30 03:14:14;;;;;;;59.08;35.17;;;;;;;3.04;100.00;100768.97;5348334;27;20019;-80
2022/09/30 03:17:04;;;;;;;67.35;36.40;;;;;;;3.06;100.00;100771.53;5329244;27;20127;-80
2022/09/30 03:20:00;;;;;;;53.55;35.08;;;;;;;3.01;100.00;100771.81;5346874;27;20059;-80
2022/09/30 03:22:52;;;;;;;47.20;30.30;;;;;;;3.12;100.00;100771.13;5348415;27;20149;-80
2022/09/30 03:25:31;;;;;;;61.85;36.72;;;;;;;3.35;100.00;100772.34;5345973;27;20028;-81
2022/09/30 03:28:24;;;;;;;72.85;39.92;;;;;;;3.37;100.00;100773.91;5339257;27;20035;-80
2022/09/30 03:31:13;;;;;;;71.93;42.60;;;;;;;3.48;100.00;100772.38;5344069;27;20055;-81
2022/09/30 03:33:50;;;;;;;73.55;42.10;;;;;;;3.61;100.00;100778.53;5348830;27;20019;-81
2022/09/30 03:36:39;;;;;;;87.25;47.28;;;;;;;3.49;100.00;100767.03;5328277;27;20028;-80
2022/09/30 03:39:32;;;;;;;66.22;37.55;;;;;;;3.49;100.00;100776.69;5347500;27;20050;-81
2022/09/30 03:42:13;;;;;;;86.55;46.92;;;;;;;3.40;100.00;100764.94;5346020;27;20036;-80
2022/09/30 03:44:59;;;;;;;77.05;42.72;;;;;;;3.35;100.00;100770.53;5347386;27;20511;-81
2022/09/30 03:47:34;;;;;;;71.32;37.47;;;;;;;3.44;100.00;100786.69;5321637;27;20046;-80
2022/09/30 03:50:09;;;;;;;85.03;45.70;;;;;;;3.58;100.00;100786.69;5346789;27;20031;-81
2022/09/30 03:52:41;;;;;;;85.78;46.50;;;;;;;3.64;100.00;100788.06;5348138;27;20141;-80
2022/09/30 03:55:14;;;;;;;83.05;44.22;;;;;;;3.50;100.00;100784.50;5345792;27;20031;-80
2022/09/30 03:57:45;;;;;;;68.22;39.70;;;;;;;3.48;100.00;100804.03;5347053;27;20028;-80
2022/09/30 04:00:17;;;;;;;78.18;41.42;;;;;;;3.24;100.00;100798.50;5347456;27;20501;-80
2022/09/30 04:02:50;;;;;;;74.93;41.60;;;;;;;3.25;100.00;100793.16;5329814;27;20054;-80
2022/09/30 04:05:21;;;;;;;73.35;40.58;;;;;;;3.13;100.00;100802.66;5341431;27;20047;-81
2022/09/30 04:07:52;;;;;;;62.70;35.13;;;;;;;3.19;100.00;100809.34;5346450;27;20110;-81
2022/09/30 04:10:25;;;;;;;620.92;73.43;;;;;;;2.65;100.00;100807.38;5347319;27;20072;-80
2022/09/30 04:12:57;;;;;;;57.92;33.78;;;;;;;2.99;100.00;100818.50;5344917;27;20059;-81
2022/09/30 04:15:28;;;;;;;52.20;29.67;;;;;;;2.87;100.00;100821.88;5345525;27;20102;-80
2022/09/30 04:17:59;;;;;;;45.80;27.83;;;;;;;2.69;100.00;100827.31;5343485;27;20046;-81
2022/09/30 04:20:31;;;;;;;51.50;28.63;;;;;;;2.72;100.00;100840.31;5345628;27;20095;-80
2022/09/30 04:23:03;;;;;;;58.92;32.65;;;;;;;2.63;100.00;100836.44;5347658;27;20811;-80
2022/09/30 04:25:34;;;;;;;42.22;26.83;;;;;;;2.54;100.00;100846.66;5347112;27;20060;-80
2022/09/30 04:28:05;;;;;;;47.72;28.83;;;;;;;2.31;100.00;100851.47;5345562;27;20152;-80
2022/09/30 04:30:37;;;;;;;46.63;28.98;;;;;;;2.41;100.00;100857.06;5343808;27;20032;-81
2022/09/30 04:33:09;;;;;;;52.03;29.90;;;;;;;2.36;100.00;100851.22;5328818;27;20485;-80
2022/09/30 04:35:40;;;;;;;52.78;31.75;;;;;;;2.40;100.00;100848.34;5346800;27;20433;-80
2022/09/30 04:38:12;;;;;;;59.25;34.45;;;;;;;2.41;100.00;100847.38;5346089;27;20109;-81
2022/09/30 04:40:43;;;;;;;65.28;37.13;;;;;;;2.48;100.00;100842.59;5316850;27;20119;-81
2022/09/30 04:43:17;;;;;;;65.95;39.38;;;;;;;2.61;100.00;100838.31;5324853;28;20044;-81
2022/09/30 04:45:51;;;;;;;109.78;39.17;;;;;;;2.37;100.00;100853.75;5326883;27;20020;-81
2022/09/30 04:48:23;;;;;;;70.22;38.53;;;;;;;2.83;100.00;100851.03;5344537;27;20062;-81
2022/09/30 04:50:54;;;;;;;73.25;41.15;;;;;;;2.95;100.00;100853.88;5345228;27;20111;-81
2022/09/30 04:53:25;;;;;;;70.35;39.13;;;;;;;3.16;100.00;100851.72;5328151;27;20034;-81
2022/09/30 04:55:59;;;;;;;66.55;37.78;;;;;;;3.21;100.00;100858.41;5346122;27;20042;-81
2022/09/30 04:58:31;;;;;;;94.72;45.58;;;;;;;2.97;100.00;100865.16;5346647;27;20027;-81
2022/09/30 05:01:05;;;;;;;67.40;34.72;;;;;;;2.73;100.00;100859.59;5343675;27;20610;-81
2022/09/30 05:03:37;;;;;;;68.30;39.53;;;;;;;3.19;100.00;100865.56;5323841;27;20367;-81
2022/09/30 05:06:09;;;;;;;75.40;41.22;;;;;;;3.31;100.00;100868.38;5345692;27;20047;-81
2022/09/30 05:08:42;;;;;;;70.47;39.90;;;;;;;3.58;100.00;100868.44;5343886;27;20402;-81
2022/09/30 05:11:18;;;;;;;71.72;41.17;;;;;;;3.74;100.00;100868.31;5342567;27;20492;-81
2022/09/30 05:13:50;;;;;;;;;;;;;;;3.75;100.00;100876.16;5337948;27;20180;-81
2022/09/30 05:16:21;;;;;;;883.87;93.20;;;;;;;3.77;100.00;100883.97;5320313;27;19920;-80
2022/09/30 05:18:53;;;;;;;81.18;39.25;;;;;;;4.18;100.00;100875.16;5339766;27;20281;-80
2022/09/30 05:21:25;;;;;;;71.93;41.17;;;;;;;4.31;100.00;100886.63;5341392;27;20104;-80
2022/09/30 05:23:57;;;;;;;86.13;47.92;;;;;;;4.43;100.00;100889.38;5336413;27;20032;-80
2022/09/30 05:26:28;;;;;;;78.55;45.80;;;;;;;4.41;100.00;100893.94;5327412;27;20546;-81
2022/09/30 05:28:59;;;;;;;106.43;56.03;;;;;;;4.13;100.00;100882.53;5343662;27;20031;-81
2022/09/30 05:31:31;;;;;;;88.13;47.15;;;;;;;4.26;100.00;100882.56;5344234;27;20023;-80
2022/09/30 05:34:03;;;;;;;99.68;51.20;;;;;;;3.91;100.00;100883.06;5325435;27;20378;-81
2022/09/30 05:36:35;;;;;;;87.25;47.45;;;;;;;3.98;100.00;100873.81;5326281;27;20031;-81
2022/09/30 05:39:10;;;;;;;84.47;43.08;;;;;;;4.34;100.00;100894.31;5345413;27;20027;-80
2022/09/30 05:41:41;;;;;;;86.60;47.83;;;;;;;4.53;100.00;100901.88;5342682;27;20036;-81
2022/09/30 05:44:12;;;;;;;375.13;60.40;;;;;;;4.43;100.00;100916.63;5334105;27;20389;-81
2022/09/30 05:46:50;;;;;;;72.65;42.47;;;;;;;4.54;100.00;100916.78;5342006;27;20027;-81
2022/09/30 05:49:21;;;;;;;82.95;39.67;;;;;;;4.49;100.00;100918.88;5345961;27;20035;-81
2022/09/30 05:51:52;;;;;;;78.22;46.20;;;;;;;4.64;100.00;100929.38;5326773;27;20020;-81
2022/09/30 05:54:24;;;;;;;85.32;49.13;;;;;;;4.64;100.00;100922.28;5343679;27;20103;-81
2022/09/30 05:56:55;;;;;;;80.80;46.42;;;;;;;4.77;100.00;100924.13;5344243;27;20024;-81
2022/09/30 05:59:26;;;;;;;115.75;56.38;;;;;;;4.58;100.00;100925.34;5343062;27;20361;-81
2022/09/30 06:01:58;;;;;;;113.43;57.88;;;;;;;4.42;100.00;100932.56;5343702;27;20062;-81
2022/09/30 06:04:29;;;;;;;89.10;51.35;;;;;;;4.43;100.00;100942.22;5344875;27;20055;-81
2022/09/30 06:07:01;;;;;;;91.95;51.42;;;;;;;4.19;100.00;100936.72;5341289;27;20493;-80
2022/09/30 06:09:32;;;;;;;82.07;48.55;;;;;;;4.20;100.00;100938.44;5343942;27;20428;-81
2022/09/30 06:12:05;;;;;;;82.43;47.65;;;;;;;4.32;100.00;100950.84;5346048;27;20032;-81
2022/09/30 06:14:37;;;;;;;81.22;46.42;;;;;;;4.34;100.00;100949.78;5345535;27;20042;-80
2022/09/30 06:17:08;;;;;;;85.88;53.00;;;;;;;4.35;100.00;100938.28;5342922;27;20027;-81
2022/09/30 06:19:39;;;;;;;87.45;52.28;;;;;;;4.48;100.00;100953.31;5322846;27;20024;-81
2022/09/30 06:22:11;;;;;;;87.70;54.15;;;;;;;4.79;100.00;100956.59;5338098;27;21777;-81
2022/09/30 06:24:43;;;;;;;114.65;58.15;;;;;;;5.06;100.00;100957.34;5339704;27;20039;-81
2022/09/30 06:27:15;;;;;;;156.27;62.00;;;;;;;5.50;100.00;100960.56;5325243;27;20381;-81
2022/09/30 06:29:46;;;;;;;305.23;83.85;;;;;;;5.65;100.00;100961.28;5332335;27;20027;-81
2022/09/30 06:32:17;;;;;;;237.55;77.28;;;;;;;5.98;100.00;100966.03;5337065;27;20048;-81
2022/09/30 06:34:49;;;;;;;670.60;113.38;;;;;;;6.28;100.00;100958.66;5329010;27;20051;-82
2022/09/30 06:37:23;;;;;;;547.70;105.75;;;;;;;6.47;100.00;100963.41;5348511;27;20024;-81
2022/09/30 06:39:55;;;;;;;500.35;99.30;;;;;;;6.60;100.00;100962.41;5325575;27;20016;-81
2022/09/30 06:42:26;;;;;;;265.50;79.63;;;;;;;6.76;100.00;100953.31;5340036;27;20089;-81
2022/09/30 06:44:57;;;;;;;114.38;67.10;;;;;;;7.13;100.00;100947.88;5340731;27;20464;-81
2022/09/30 06:47:31;;;;;;;103.28;64.00;;;;;;;7.16;100.00;100942.34;5343400;27;20030;-81
2022/09/30 06:50:03;;;;;;;101.25;62.00;;;;;;;7.31;100.00;100941.16;5344403;27;20370;-81
2022/09/30 06:52:35;;;;;;;100.80;58.75;;;;;;;7.55;100.00;100953.47;5323173;27;20024;-81
2022/09/30 06:55:06;;;;;;;88.10;57.30;;;;;;;7.78;100.00;100958.78;5338591;27;20023;-82
2022/09/30 06:57:40;;;;;;;82.97;53.13;;;;;;;-145.45;100.00;62759.84;5342487;27;20080;-82
2022/09/30 07:00:12;;;;;;;60.33;43.97;;;;;;;-145.45;100.00;62759.84;5339342;27;20553;-82
2022/09/30 07:02:44;;;;;;;60.45;42.25;;;;;;;8.66;100.00;100949.91;5324612;27;20028;-82
2022/09/30 07:05:16;;;;;;;50.15;36.35;;;;;;;8.83;100.00;100956.47;5339788;27;20463;-82
2022/09/30 07:07:48;;;;;;;36.05;29.85;;;;;;;9.09;100.00;100954.28;5342437;27;20107;-82
2022/09/30 07:10:19;;;;;;;27.85;24.83;;;;;;;9.59;100.00;100966.88;5323391;27;20020;-81
2022/09/30 07:12:51;;;;;;;25.85;23.10;;;;;;;9.76;100.00;100952.13;5343023;27;20130;-82
2022/09/30 07:15:23;;;;;;;23.52;20.08;;;;;;;10.06;100.00;100947.72;5342712;27;20026;-81
2022/09/30 07:17:57;;;;;;;19.55;17.52;;;;;;;10.59;100.00;100952.75;5342429;27;20043;-81
2022/09/30 07:20:29;;;;;;;18.05;15.80;;;;;;;11.22;100.00;100946.06;5321195;27;20111;-81
2022/09/30 07:23:00;;;;;;;16.80;15.05;;;;;;;11.44;100.00;100953.75;5345221;27;20031;-81
2022/09/30 07:25:32;;;;;;;15.60;14.02;;;;;;;12.04;100.00;100950.72;5341698;27;20023;-81
2022/09/30 07:28:03;;;;;;;14.40;13.07;;;;;;;12.24;100.00;100951.44;5343130;27;20059;-81
2022/09/30 07:30:34;;;;;;;14.15;12.70;;;;;;;12.72;100.00;100945.88;5342867;27;20076;-81
2022/09/30 07:33:06;;;;;;;13.10;11.80;;;;;;;13.01;100.00;100948.31;5343836;27;20590;-82
2022/09/30 07:35:37;;;;;;;13.25;11.98;;;;;;;13.20;100.00;100948.09;5342883;27;20031;-81
2022/09/30 07:38:09;;;;;;;14.55;12.73;;;;;;;13.20;100.00;100949.91;5340670;27;20138;-82
2022/09/30 07:40:41;;;;;;;13.40;11.85;;;;;;;13.43;100.00;100942.25;5339666;27;20059;-82
2022/09/30 07:43:15;;;;;;;13.30;11.85;;;;;;;13.91;100.00;100948.00;5343846;27;20044;-81
2022/09/30 07:45:48;;;;;;;12.10;10.93;;;;;;;14.55;100.00;100954.56;5339067;27;20023;-81
2022/09/30 07:51:22;;;;;;;12.45;11.15;;;;;;;14.86;100.00;100943.16;5341913;27;20497;-81
2022/09/30 07:53:56;;;;;;;11.63;10.52;;;;;;;15.12;100.00;100944.84;5338527;27;20043;-81
2022/09/30 07:56:28;;;;;;;11.77;10.68;;;;;;;15.00;100.00;100936.28;5322244;27;20024;-81
2022/09/30 07:59:00;;;;;;;11.70;10.55;;;;;;;15.27;100.00;100936.91;5340603;27;20389;-81
2022/09/30 08:01:33;;;;;;;11.07;9.52;;;;;;;16.15;100.00;100935.97;5341102;27;20039;-81
2022/09/30 08:04:06;;;;;;;10.63;9.52;;;;;;;15.93;100.00;100945.66;5340326;27;20140;-81
2022/09/30 08:06:44;;;;;;;10.25;9.25;;;;;;;16.35;100.00;100944.41;5341167;27;20078;-81
2022/09/30 08:09:17;;;;;;;11.77;10.50;;;;;;;17.15;100.00;100943.16;5338777;27;20114;-81
2022/09/30 08:11:49;;;;;;;11.32;10.23;;;;;;;17.16;100.00;100919.72;5322840;27;21723;-81
2022/09/30 08:14:24;;;;;;;10.60;9.55;;;;;;;17.31;100.00;100936.75;5338626;27;20438;-81
2022/09/30 08:16:57;;;;;;;11.25;10.05;;;;;;;17.93;100.00;100938.28;5323775;27;20020;-81
2022/09/30 08:19:29;;;;;;;11.65;10.55;;;;;;;17.90;100.00;100935.09;5338643;27;20016;-81
2022/09/30 08:22:01;;;;;;;10.88;9.95;;;;;;;18.61;100.00;100940.66;5340694;27;20101;-81
2022/09/30 08:24:32;;;;;;;13.38;11.25;;;;;;;19.56;100.00;100949.31;5340881;27;20066;-81
2022/09/30 08:27:04;;;;;;;12.50;11.13;;;;;;;19.28;100.00;100946.66;5348039;27;20069;-81
2022/09/30 08:29:35;;;;;;;13.57;12.27;;;;;;;19.49;100.00;100951.16;5347881;27;20023;-82
2022/09/30 08:32:06;;;;;;;14.57;12.35;;;;;;;19.21;100.00;100941.19;5337216;27;20109;-81
2022/09/30 08:34:37;;;;;;;13.90;12.50;;;;;;;19.58;100.00;100944.56;5341844;27;20031;-82
2022/09/30 08:37:09;;;;;;;14.00;12.57;;;;;;;20.16;100.00;100946.09;5347869;27;20027;-82
2022/09/30 08:39:42;;;;;;;12.45;11.20;;;;;;;20.27;100.00;100939.28;5343508;27;20032;-81
2022/09/30 08:42:20;;;;;;;12.57;11.32;;;;;;;20.24;100.00;100945.91;5345271;27;20128;-82
2022/09/30 08:44:51;;;;;;;12.25;11.10;;;;;;;20.45;100.00;100944.09;5340797;27;20123;-82
2022/09/30 08:47:47;;;;;;;10.90;9.85;;;;;;;21.14;100.00;100941.06;5341034;27;20114;-82
2022/09/30 08:50:44;;;;;;;11.70;10.70;;;;;;;21.93;100.00;100945.69;5337606;27;20158;-82
2022/09/30 08:53:24;;;;;;;10.32;9.32;;;;;;;22.32;100.00;100952.84;5322731;27;20079;-81
2022/09/30 08:56:01;;;;;;;10.93;9.65;;;;;;;22.33;100.00;100956.38;5340998;27;20035;-82
2022/09/30 08:58:34;;;;;;;9.88;8.85;;;;;;;22.98;100.00;100950.69;5342255;27;20028;-81
2022/09/30 09:01:29;;;;;;;9.57;8.60;;;;;;;24.28;100.00;100947.03;5339545;27;20028;-82
2022/09/30 09:04:03;;;;;;;8.82;8.05;;;;;;;23.88;100.00;100954.91;5325409;27;20036;-82
2022/09/30 09:06:53;;;;;;;8.60;7.82;;;;;;;23.37;100.00;100949.53;5342028;27;20043;-82
2022/09/30 09:10:02;;;;;;;8.60;7.85;;;;;;;24.19;100.00;100934.78;5319561;27;20508;-82
2022/09/30 09:12:52;;;;;;;7.80;7.10;;;;;;;23.75;100.00;100937.59;5296343;27;20092;-81
2022/09/30 09:15:29;;;;;;;7.95;6.97;;;;;;;23.62;100.00;100945.09;5323569;27;20102;-82
2022/09/30 09:18:17;;;;;;;8.73;7.70;;;;;;;23.44;100.00;100952.19;5341870;27;20492;-81
2022/09/30 09:20:58;;;;;;;8.32;7.53;;;;;;;24.29;100.00;100947.84;5341182;27;20077;-82
2022/09/30 09:23:32;;;;;;;8.35;7.03;;;;;;;24.31;100.00;100948.44;5340550;27;20118;-82
2022/09/30 09:26:04;;;;;;;7.25;6.63;;;;;;;23.58;100.00;100944.72;5340715;27;20028;-81
2022/09/30 09:28:59;;;;;;;12.98;8.23;;;;;;;24.29;100.00;100937.78;5341226;27;20031;-82
2022/09/30 09:31:31;;;;;;;9.50;5.85;;;;;;;23.92;100.00;100951.47;5339720;27;20035;-82
2022/09/30 09:34:12;;;;;;;7.07;6.00;;;;;;;24.64;100.00;100950.72;5341016;27;20473;-82
2022/09/30 09:37:11;;;;;;;7.45;6.45;;;;;;;24.97;100.00;100960.28;5342120;27;20106;-81
2022/09/30 09:40:44;;;;;;;7.00;6.05;;;;;;;24.89;100.00;100956.00;5340934;27;20019;-81
2022/09/30 09:43:29;;;;;;;7.68;6.80;;;;;;;24.63;100.00;100945.50;5260372;28;20049;-82
2022/09/30 09:46:23;;;;;;;9.07;6.05;;;;;;;25.41;100.00;100944.41;5246458;28;20392;-81
2022/09/30 09:49:14;;;;;;;7.28;5.50;;;;;;;25.08;100.00;100945.78;5331170;27;20513;-83
2022/09/30 09:51:50;;;;;;;6.50;5.88;;;;;;;24.90;100.00;100944.00;5343153;27;20027;-82
2022/09/30 09:54:23;;;;;;;6.00;5.50;;;;;;;26.32;93.67;100943.00;5320343;27;20465;-81
2022/09/30 09:56:54;;;;;;;6.25;5.65;;;;;;;26.12;97.99;100935.22;5337812;27;20682;-82
2022/09/30 09:59:25;;;;;;;4.87;4.27;;;;;;;25.53;92.54;100938.94;5340746;27;20032;-81
2022/09/30 10:01:59;;;;;;;5.20;4.70;;;;;;;25.54;92.14;100935.13;5338739;27;20278;-82
2022/09/30 10:04:32;;;;;;;4.90;4.50;;;;;;;25.40;100.00;100937.31;5340198;27;20047;-81
2022/09/30 10:07:13;;;;;;;5.45;4.95;;;;;;;27.52;98.16;100943.63;5339139;27;20457;-82
2022/09/30 10:09:45;;;;;;;5.40;4.90;;;;;;;26.90;94.28;100928.16;5340259;27;20031;-81
2022/09/30 10:12:24;;;;;;;6.70;5.03;;;;;;;27.66;70.34;100929.53;5342761;27;20023;-82
2022/09/30 10:15:14;;;;;;;5.38;4.88;;;;;;;27.52;81.76;100937.31;5340457;27;20032;-82
2022/09/30 10:17:51;;;;;;;4.80;4.30;;;;;;;27.55;74.87;100934.06;5322685;27;20036;-82
2022/09/30 10:20:29;;;;;;;5.18;4.20;;;;;;;28.70;69.15;100937.81;5338987;27;20020;-82
2022/09/30 10:23:08;;;;;;;8.18;4.60;;;;;;;27.83;64.23;100935.78;5335528;27;20043;-81
2022/09/30 10:25:54;;;;;;;4.35;3.95;;;;;;;28.35;64.36;100939.97;5338425;27;20490;-82
2022/09/30 10:28:29;;;;;;;4.47;3.90;;;;;;;27.09;71.82;100945.16;5337901;27;20032;-81
2022/09/30 10:31:05;;;;;;;7.03;4.13;;;;;;;27.42;62.71;100937.16;5323684;27;20081;-81
2022/09/30 10:33:47;;;;;;;4.18;3.85;;;;;;;28.09;61.28;100947.09;5344662;27;20024;-81
2022/09/30 10:36:21;;;;;;;4.68;4.03;;;;;;;26.34;77.22;100943.59;5344586;27;20437;-82
2022/09/30 10:38:59;;;;;;;4.30;3.90;;;;;;;27.69;65.94;100943.56;5337398;27;20024;-81
2022/09/30 10:41:33;;;;;;;5.85;4.10;;;;;;;26.74;66.34;100951.72;5340389;27;20445;-81
2022/09/30 10:44:13;;;;;;;4.45;3.55;;;;;;;26.22;74.49;100947.19;5335087;27;20488;-80
2022/09/30 10:46:48;;;;;;;4.18;3.50;;;;;;;26.38;95.92;100931.06;5334425;27;20038;-84
2022/09/30 10:49:35;;;;;;;4.10;3.70;;;;;;;26.99;78.92;100934.06;5328667;27;20016;-82
2022/09/30 10:52:17;;;;;;;3.92;3.53;;;;;;;26.59;84.37;100948.69;5334473;27;20024;-82
2022/09/30 10:54:52;;;;;;;4.22;3.42;;;;;;;26.54;67.98;100943.13;5336294;27;20485;-82
2022/09/30 10:57:37;;;;;;;2.60;2.30;;;;;;;28.14;89.27;100946.31;5331786;27;20059;-82
2022/09/30 11:00:17;;;;;;;3.95;2.70;;;;;;;28.81;59.32;100945.06;5337117;27;20040;-82
2022/09/30 11:02:57;;;;;;;3.30;1.95;;;;;;;27.37;63.38;100940.69;5338759;27;20454;-82
2022/09/30 11:05:33;;;;;;;2.20;1.95;;;;;;;24.77;89.15;100938.75;5335887;27;20053;-81
2022/09/30 11:08:29;;;;;;;2.17;2.00;;;;;;;23.70;98.49;100942.06;5324442;27;20024;-81
2022/09/30 11:11:23;;;;;;;4.40;1.95;;;;;;;24.31;98.07;100930.19;5337358;27;20389;-82
2022/09/30 11:14:00;;;;;;;3.75;2.33;;;;;;;24.81;94.59;100939.97;5319737;27;20028;-81
2022/09/30 11:16:56;;;;;;;3.00;2.70;;;;;;;25.47;81.91;100935.28;5338759;27;20043;-82
2022/09/30 11:19:35;;;;;;;3.33;1.80;;;;;;;25.87;72.33;100939.09;5345113;27;20028;-82
2022/09/30 11:22:34;;;;;;;3.67;2.42;;;;;;;26.00;72.27;100940.75;5341840;27;20023;-83
2022/09/30 11:25:12;;;;;;;3.15;2.20;;;;;;;26.67;70.79;100920.97;5339562;27;20496;-83
2022/09/30 11:27:56;;;;;;;2.40;2.20;;;;;;;27.04;64.89;100931.41;5341739;27;20114;-83
2022/09/30 11:30:51;;;;;;;4.30;2.95;;;;;;;25.45;75.60;100923.72;5339935;27;20058;-83
2022/09/30 11:33:35;;;;;;;4.15;2.30;;;;;;;25.69;78.14;100926.44;5341929;27;20035;-83
2022/09/30 11:36:19;;;;;;;2.95;2.70;;;;;;;27.05;72.04;100922.13;5342715;27;20024;-82
2022/09/30 11:39:32;;;;;;;2.63;2.42;;;;;;;27.91;61.05;100918.94;5343887;27;20027;-83
2022/09/30 11:42:24;;;;;;;4.55;2.60;;;;;;;27.76;58.20;100907.75;5340643;27;21512;-82
2022/09/30 11:45:22;;;;;;;5.03;1.90;;;;;;;26.33;59.33;100926.38;5341006;27;20065;-83
2022/09/30 11:48:20;;;;;;;2.65;1.75;;;;;;;26.70;62.61;100915.00;5324943;27;20039;-83
2022/09/30 11:51:25;;;;;;;3.80;1.75;;;;;;;27.93;62.98;100910.47;5342988;27;20043;-83
2022/09/30 11:54:06;;;;;;;4.32;2.47;;;;;;;28.59;55.46;100896.56;5342461;27;20032;-83
2022/09/30 11:56:43;;;;;;;2.65;2.25;;;;;;;28.46;59.57;100902.47;5342850;27;20393;-83
2022/09/30 11:59:34;;;;;;;4.93;2.08;;;;;;;27.83;58.24;100897.44;5339732;27;20135;-83
2022/09/30 12:02:35;;;;;;;4.78;1.77;;;;;;;26.76;58.85;100892.09;5340717;27;20065;-83
2022/09/30 12:05:13;;;;;;;5.35;2.53;;;;;;;26.62;57.88;100890.78;5340438;27;20048;-83